Los Posos, Valles Caldera, New Mexico Weather observations

Data are for 10 minute period ending at time listed.
 Day   Time   Solar   Ave.   Ave.  Ave.  Vector  Max.   Baro.   Total    
  of    of     Rad.   Air    Rel.  Wind   Wind   Wind  Press.  Precip.   
Year   Day            Temp.  Hum.  Speed  Dir.   Gust                    
2015   (MST)  Kw/m2    F      %     mph   deg.    mph    mb.     in.     
-------------------------------------------------------------------------
  31    5:30   0.00   29.1    97    0.0     0     0.0   99999.0    0.01 
  31    5:40   0.00   29.2    97    0.0     0     0.0   99999.0    0.00 
  31    5:50   0.00   29.1    97    0.0     0     0.0   99999.0    0.02 
  31    6:00   0.00   29.1    97    0.0     0     0.0   99999.0    0.01 
  31    6:10   0.00   29.1    97    0.0     0     0.0   99999.0    0.00 
  31    6:20   0.00   29.1    97    0.0     0     0.0   99999.0    0.01 
  31    6:30   0.00   29.1    97    0.0     0     0.0   99999.0    0.00 
  31    6:40   0.00   29.0    97    0.0     0     0.0   99999.0    0.00 
  31    6:50   0.00   29.0    97    0.0     0     0.0   99999.0    0.00 
  31    7:00   0.00   28.9    97    0.0     0     0.0   99999.0    0.00 
  31    7:10   0.00   28.9    97    0.0     0     0.0   99999.0    0.00 
  31    7:20   0.00   28.8    97    0.0     0     0.0   99999.0    0.00 
  31    7:30   0.00   28.8    97    0.0     0     0.0   99999.0    0.00 
  31    7:40   0.00   28.8    97    0.0     0     0.0   99999.0    0.00 
  31    7:50   0.00   28.8    97    0.0     0     0.0   99999.0    0.00 
  31    8:00   0.00   28.9    97    0.0     0     0.0   99999.0    0.00 
  31    8:10   0.01   29.2    97    0.0     0     0.0   99999.0    0.00 
  31    8:20   0.01   29.5    97    0.0     0     0.0   99999.0    0.00 
  31    8:30   0.01   30.3    97    0.0     0     0.0   99999.0    0.00 
  31    8:40   0.01   31.0    97    0.0     0     0.0   99999.0    0.01 
  31    8:50   0.02   30.9    97    0.0     0     0.0   99999.0    0.01 
  31    9:00   0.03   30.6    97    0.0     0     0.0   99999.0    0.01 
  31    9:10   0.03   31.1    97    0.0     0     0.0   99999.0    0.01 
  31    9:20   0.04   31.6    97    0.1   166     1.2   99999.0    0.01 
  31    9:30   0.03   31.4    97    0.2   165     1.8   99999.0    0.12 
  31    9:40   0.02   31.0    96    0.7   159     4.8   99999.0    0.00 
  31    9:50   0.03   30.9    96    0.1   170     1.8   99999.0    0.00 
  31   10:00   0.03   31.2    97    0.1   175     1.2   99999.0    0.00 
  31   10:10   0.04   31.8    96    0.8   181     3.6   99999.0    0.00 
  31   10:20   0.03   32.0    96    2.0   205     4.8   99999.0    0.00 
  31   10:30   0.03   31.7    96    1.2   209     5.4   99999.0    0.00 
  31   10:40   0.02   30.9    96    0.4   241     4.2   99999.0    0.00 
  31   10:50   0.03   31.1    96    0.6   240     4.2   99999.0    0.00 
  31   11:00   0.04   32.0    96    0.5   178     3.0   99999.0    0.00 
  31   11:10   0.05   31.6    95    3.5   161     6.0   99999.0    0.00 
  31   11:20   0.04   31.5    95    3.5   166     6.0   99999.0    0.00 
  31   11:30   0.05   32.8    96    1.3   342     4.2   99999.0    0.00 
  31   11:40   0.05   32.4    94    2.8   149     6.0   99999.0    0.00 
  31   11:50   0.05   31.9    94    3.3   161     7.8   99999.0    0.00 
  31   12:00   0.04   31.4    94    4.4   169     7.8   99999.0    0.00 
  31   12:10   0.04   31.5    95    2.7   146     6.6   99999.0    0.00 
  31   12:20   0.04   31.3    94    3.1   149     6.6   99999.0    0.00 
  31   12:30   0.05   31.7    94    3.7   230     7.8   99999.0    0.00 
  31   12:40   0.08   32.7    92    4.3   241     7.2   99999.0    0.00 
  31   12:50   0.10   33.9    89    4.1   252     7.8   99999.0    0.00 
  31   13:00   0.10   33.7    88    5.0   234     8.4   99999.0    0.00 
  31   13:10   0.10   33.6    87    5.6   237    10.8   99999.0    0.00 
  31   13:20   0.10   34.4    84    4.4   270     9.6   99999.0    0.00 
  31   13:30   0.07   34.5    84    3.7   293     9.0   99999.0    0.00 
  31   13:40   0.07   33.7    84    4.1   242     9.6   99999.0    0.00 
  31   13:50   0.08   33.7    83    4.7   275     8.4   99999.0    0.00 
  31   14:00   0.07   33.7    83    4.7   247    11.9   99999.0    0.00 
  31   14:10   0.07   33.2    83    7.6   231    15.5   99999.0    0.00 
  31   14:20   0.07   33.2    84    5.9   247    10.2   99999.0    0.00 
  31   14:30   0.07   33.7    83    4.2   256    10.8   99999.0    0.00 
  31   14:40   0.08   33.7    82    4.8   246    10.8   99999.0    0.00 
  31   14:50   0.08   33.8    82    5.1   237     9.6   99999.0    0.00 
  31   15:00   0.08   33.4    83    6.6   253    11.9   99999.0    0.00 
  31   15:10   0.08   33.4    85    4.8   259    10.8   99999.0    0.01 
  31   15:20   0.07   33.4    85    5.3   237    11.3   99999.0    0.00 
  31   15:30   0.06   33.3    84    5.5   252    10.8   99999.0    0.00 
  31   15:40   0.06   33.5    83    4.8   290     9.6   99999.0    0.00 
  31   15:50   0.06   33.9    82    3.1   274     8.4   99999.0    0.00 
  31   16:00   0.06   33.8    82    4.9   282     9.6   99999.0    0.00 
  31   16:10   0.06   33.9    83    3.4   279     9.0   99999.0    0.00 
  31   16:20   0.05   33.3    86    3.3   268     6.6   99999.0    0.00 
  31   16:30   0.04   33.4    87    2.4   231     7.8   99999.0    0.00 
  31   16:40   0.04   33.3    86    3.3   220     7.8   99999.0    0.00 
  31   16:50   0.03   33.4    84    2.7   238     6.6   99999.0    0.00 
  31   17:00   0.04   33.5    82    2.8   235     7.8   99999.0    0.00 
  31   17:10   0.02   33.1    83    2.6   272     6.6   99999.0    0.00 
  31   17:20   0.01   32.5    85    3.8   227     7.2   99999.0    0.00 
  31   17:30   0.01   32.1    86    3.7   225     6.6   99999.0    0.00 
  31   17:40   0.00   31.7    87    0.0     0     0.0   99999.0    0.00 
  31   17:50   0.00   31.6    87    0.0     0     0.0   99999.0    0.00 
  31   18:00   0.00   31.5    87    0.0     0     0.0   99999.0    0.00 
  31   18:10   0.00   31.5    85    0.0     0     0.0   99999.0    0.00 
  31   18:20   0.00   31.0    87    0.0     0     0.0   99999.0    0.00 
  31   18:30   100.00  99999.0   99999  99999.0   99999   99999.0   99999.0   99999.00 
  31   18:40   100.00  99999.0   99999  99999.0   99999   99999.0   99999.0   99999.00 
  31   18:50   100.00  99999.0   99999  99999.0   99999   99999.0   99999.0   99999.00 
  31   19:00   100.00  99999.0   99999  99999.0   99999   99999.0   99999.0   99999.00 
  31   19:10   100.00  99999.0   99999  99999.0   99999   99999.0   99999.0   99999.00 
  31   19:20   100.00  99999.0   99999  99999.0   99999   99999.0   99999.0   99999.00 
  31   19:30   0.00   30.6    87    0.0     0     0.0   99999.0    0.00 
  31   19:40   0.00   30.2    89    0.0     0     0.0   99999.0    0.00 
  31   19:50   0.00   29.8    90    0.0     0     0.0   99999.0    0.00 
  31   20:00   0.00   29.7    90    0.0     0     0.0   99999.0    0.00 
  31   20:10   0.00   29.7    89    0.0     0     0.0   99999.0    0.00 
  31   20:20   100.00  99999.0   99999  99999.0   99999   99999.0   99999.0   99999.00 
  31   20:30   0.00   29.6    86    0.0     0     0.0   99999.0    0.00 
  31   20:40   0.00   29.3    86    0.0     0     0.0   99999.0    0.00 
  31   20:50   0.00   29.0    87    0.0     0     0.0   99999.0    0.00 
  31   21:00   0.00   28.8    87    0.0     0     0.0   99999.0    0.00 
  31   21:10   0.00   28.7    87    0.0     0     0.0   99999.0    0.00 
  31   21:20   0.00   28.5    86    0.0     0     0.0   99999.0    0.00 
  31   21:30   0.00   28.3    86    0.0     0     0.0   99999.0    0.00 
  31   21:40   0.00   28.2    87    0.0     0     0.0   99999.0    0.00 
  31   21:50   0.00   27.8    87    0.0     0     0.0   99999.0    0.00 
  31   22:00   0.00   27.6    88    0.0     0     0.0   99999.0    0.00 
  31   22:10   0.00   26.4    88    0.0     0     0.0   99999.0    0.00 
  31   22:20   0.00   26.9    90    0.0     0     0.0   99999.0    0.00 
  31   22:30   0.00   26.5    88    0.0     0     0.0   99999.0    0.00 
  31   22:40   0.00   25.4    90    0.0     0     0.0   99999.0    0.00 
  31   22:50   0.00   25.7    91    0.0     0     0.0   99999.0    0.00 
  31   23:00   0.00   26.0    90    0.0     0     0.0   99999.0    0.00 
  31   23:10   0.00   25.8    90    0.0     0     0.0   99999.0    0.00 
  31   23:20   0.00   25.5    90    0.0     0     0.0   99999.0    0.00 
  31   23:30   0.00   25.2    90    0.0     0     0.0   99999.0    0.00 
  31   23:40   0.00   24.8    90    0.0     0     0.0   99999.0    0.00 
  31   23:50   0.00   24.1    91    0.0     0     0.0   99999.0    0.00 
  32    0:00   0.00   24.5    91    0.0     0     0.0   99999.0    0.00 
  32    0:10   0.00   23.5    91    0.0     0     0.0   99999.0    0.00 
  32    0:20   0.00   23.4    92    0.0     0     0.0   99999.0    0.00 
  32    0:30   0.00   23.1    92    0.0     0     0.0   99999.0    0.00 
  32    0:40   0.00   22.3    91    0.0     0     0.0   99999.0    0.00 
  32    0:50   0.00   21.3    92    0.0     0     0.0   99999.0    0.00 
  32    1:00   0.00   20.1    92    0.0     0     0.0   99999.0    0.00 
  32    1:10   0.00   17.8    91    0.0     0     0.0   99999.0    0.00 
  32    1:20   0.00   15.8    92    0.0     0     0.0   99999.0    0.00 
  32    1:30   0.00   13.9    91    0.0     0     0.0   99999.0    0.00 
  32    1:40   0.00   12.4    92    0.0     0     0.0   99999.0    0.00 
  32    1:50   0.00   12.3    93    0.0     0     0.0   99999.0    0.00 
  32    2:00   0.00   12.3    93    0.0     0     0.0   99999.0    0.00 
  32    2:10   0.00   12.1    92    0.0     0     0.0   99999.0    0.00 
  32    2:20   0.00   11.1    91    0.0     0     0.0   99999.0    0.00 
  32    2:30   0.00   11.0    91    0.0     0     0.0   99999.0    0.00 
  32    2:40   0.00    9.7    90    0.0     0     0.0   99999.0    0.00 
  32    2:50   0.00    9.0    90    0.0     0     0.0   99999.0    0.00 
  32    3:00   0.00    9.7    91    0.0     0     0.0   99999.0    0.00 
  32    3:10   0.00    9.2    90    0.0     0     0.0   99999.0    0.00 
  32    3:20   0.00    8.8    90    0.0     0     0.0   99999.0    0.00 
  32    3:30   0.00    8.6    90    0.0     0     0.0   99999.0    0.00 
  32    3:40   0.00    8.3    90    0.0     0     0.0   99999.0    0.00 
  32    3:50   0.00    8.1    90    0.0     0     0.0   99999.0    0.00 
  32    4:00   0.00    7.5    89    0.0     0     0.0   99999.0    0.00 
  32    4:10   0.00    8.0    90    0.0     0     0.0   99999.0    0.00 
  32    4:20   0.00    7.5    89    0.0     0     0.0   99999.0    0.00 
  32    4:30   0.00    7.2    89    0.0     0     0.0   99999.0    0.00 
  32    4:40   0.00    6.8    89    0.0     0     0.0   99999.0    0.00 
  32    4:50   0.00    7.0    89    0.0     0     0.0   99999.0    0.00 
  32    5:00   0.00    6.2    88    0.0     0     0.0   99999.0    0.00 
  32    5:10   0.00    5.6    89    0.0     0     0.0   99999.0    0.00 
  32    5:20   0.00    4.4    88    0.0     0     0.0   99999.0    0.00 

Return to Los Posos, Valles Caldera graphs page.


Western Regional Climate Center,wrcc@dri.edu